sensor_id;sensor_type;location;lat;lon;timestamp;P1;durP1;ratioP1;P2;durP2;ratioP2
140;SDS011;65;48.778;9.160;2023-03-01T00:01:02;25.67;;;14.47;;
140;SDS011;65;48.778;9.160;2023-03-01T00:03:49;23.73;;;14.07;;
140;SDS011;65;48.778;9.160;2023-03-01T00:06:36;25.40;;;14.73;;
140;SDS011;65;48.778;9.160;2023-03-01T00:09:22;25.37;;;14.37;;
140;SDS011;65;48.778;9.160;2023-03-01T00:12:08;23.90;;;14.13;;
140;SDS011;65;48.778;9.160;2023-03-01T00:14:54;26.00;;;14.70;;
140;SDS011;65;48.778;9.160;2023-03-01T00:17:40;25.23;;;14.43;;
140;SDS011;65;48.778;9.160;2023-03-01T00:20:26;25.07;;;13.93;;
140;SDS011;65;48.778;9.160;2023-03-01T00:23:11;23.97;;;13.70;;
140;SDS011;65;48.778;9.160;2023-03-01T00:25:57;23.57;;;14.50;;
140;SDS011;65;48.778;9.160;2023-03-01T00:28:43;23.00;;;14.20;;
140;SDS011;65;48.778;9.160;2023-03-01T00:31:29;22.23;;;13.30;;
140;SDS011;65;48.778;9.160;2023-03-01T00:34:17;22.20;;;14.07;;
140;SDS011;65;48.778;9.160;2023-03-01T00:37:02;22.47;;;13.33;;
140;SDS011;65;48.778;9.160;2023-03-01T00:40:08;25.40;;;14.37;;
140;SDS011;65;48.778;9.160;2023-03-01T00:43:02;24.90;;;14.87;;
140;SDS011;65;48.778;9.160;2023-03-01T00:45:48;24.07;;;13.93;;
140;SDS011;65;48.778;9.160;2023-03-01T00:48:34;23.07;;;13.30;;
140;SDS011;65;48.778;9.160;2023-03-01T00:51:21;27.37;;;14.37;;
140;SDS011;65;48.778;9.160;2023-03-01T00:54:09;22.97;;;13.87;;
140;SDS011;65;48.778;9.160;2023-03-01T00:56:55;25.00;;;14.60;;
140;SDS011;65;48.778;9.160;2023-03-01T00:59:40;25.27;;;15.00;;
140;SDS011;65;48.778;9.160;2023-03-01T01:02:26;24.07;;;13.90;;
140;SDS011;65;48.778;9.160;2023-03-01T01:05:12;27.27;;;14.63;;
140;SDS011;65;48.778;9.160;2023-03-01T01:07:59;26.47;;;14.90;;
140;SDS011;65;48.778;9.160;2023-03-01T01:10:45;24.97;;;14.50;;
140;SDS011;65;48.778;9.160;2023-03-01T01:13:32;26.77;;;15.30;;
140;SDS011;65;48.778;9.160;2023-03-01T01:16:18;24.60;;;14.43;;
140;SDS011;65;48.778;9.160;2023-03-01T01:19:05;25.13;;;14.63;;
140;SDS011;65;48.778;9.160;2023-03-01T01:21:51;25.90;;;14.47;;
140;SDS011;65;48.778;9.160;2023-03-01T01:24:37;26.23;;;14.37;;
140;SDS011;65;48.778;9.160;2023-03-01T01:27:23;26.53;;;14.37;;
140;SDS011;65;48.778;9.160;2023-03-01T01:30:09;25.23;;;14.63;;
140;SDS011;65;48.778;9.160;2023-03-01T01:32:55;25.00;;;15.00;;
140;SDS011;65;48.778;9.160;2023-03-01T01:38:58;26.37;;;13.90;;
140;SDS011;65;48.778;9.160;2023-03-01T01:41:44;23.87;;;14.10;;
140;SDS011;65;48.778;9.160;2023-03-01T01:44:29;27.13;;;14.67;;
140;SDS011;65;48.778;9.160;2023-03-01T01:47:16;29.00;;;16.47;;
140;SDS011;65;48.778;9.160;2023-03-01T01:50:08;25.03;;;16.07;;
140;SDS011;65;48.778;9.160;2023-03-01T01:53:01;24.57;;;14.77;;
140;SDS011;65;48.778;9.160;2023-03-01T01:55:48;28.10;;;15.70;;
140;SDS011;65;48.778;9.160;2023-03-01T01:58:39;24.83;;;14.73;;
140;SDS011;65;48.778;9.160;2023-03-01T02:01:27;29.20;;;15.23;;
140;SDS011;65;48.778;9.160;2023-03-01T02:04:13;27.20;;;14.97;;
140;SDS011;65;48.778;9.160;2023-03-01T02:07:07;26.73;;;15.83;;
140;SDS011;65;48.778;9.160;2023-03-01T02:09:59;25.67;;;14.27;;
140;SDS011;65;48.778;9.160;2023-03-01T02:12:44;25.97;;;14.97;;
140;SDS011;65;48.778;9.160;2023-03-01T02:15:32;25.93;;;15.23;;
140;SDS011;65;48.778;9.160;2023-03-01T02:18:19;27.63;;;16.03;;
140;SDS011;65;48.778;9.160;2023-03-01T02:27:19;23.40;;;14.17;;
140;SDS011;65;48.778;9.160;2023-03-01T02:30:10;26.77;;;15.63;;
140;SDS011;65;48.778;9.160;2023-03-01T02:32:57;26.47;;;15.53;;
140;SDS011;65;48.778;9.160;2023-03-01T02:35:48;25.50;;;14.83;;
140;SDS011;65;48.778;9.160;2023-03-01T02:38:34;28.27;;;16.07;;
140;SDS011;65;48.778;9.160;2023-03-01T02:41:20;26.87;;;15.53;;
140;SDS011;65;48.778;9.160;2023-03-01T02:44:07;25.40;;;14.73;;
140;SDS011;65;48.778;9.160;2023-03-01T02:46:54;25.03;;;15.80;;
140;SDS011;65;48.778;9.160;2023-03-01T02:49:42;26.77;;;16.03;;
140;SDS011;65;48.778;9.160;2023-03-01T02:55:26;25.53;;;14.73;;
140;SDS011;65;48.778;9.160;2023-03-01T02:58:13;26.80;;;15.17;;
140;SDS011;65;48.778;9.160;2023-03-01T03:00:59;29.13;;;16.10;;
140;SDS011;65;48.778;9.160;2023-03-01T03:03:46;24.33;;;15.70;;
140;SDS011;65;48.778;9.160;2023-03-01T03:06:32;25.60;;;15.87;;
140;SDS011;65;48.778;9.160;2023-03-01T03:09:18;27.63;;;16.33;;
140;SDS011;65;48.778;9.160;2023-03-01T03:12:04;26.70;;;15.10;;
140;SDS011;65;48.778;9.160;2023-03-01T03:14:50;27.60;;;15.00;;
140;SDS011;65;48.778;9.160;2023-03-01T03:17:36;27.33;;;15.63;;
140;SDS011;65;48.778;9.160;2023-03-01T03:20:26;27.30;;;16.17;;
140;SDS011;65;48.778;9.160;2023-03-01T03:23:13;27.63;;;15.43;;
140;SDS011;65;48.778;9.160;2023-03-01T03:25:59;27.17;;;16.67;;
140;SDS011;65;48.778;9.160;2023-03-01T03:28:44;28.37;;;16.10;;
140;SDS011;65;48.778;9.160;2023-03-01T03:31:32;27.80;;;16.07;;
140;SDS011;65;48.778;9.160;2023-03-01T03:34:17;28.03;;;15.37;;
140;SDS011;65;48.778;9.160;2023-03-01T03:37:03;27.80;;;15.43;;
140;SDS011;65;48.778;9.160;2023-03-01T03:39:49;27.03;;;15.57;;
140;SDS011;65;48.778;9.160;2023-03-01T03:42:34;28.40;;;15.77;;
140;SDS011;65;48.778;9.160;2023-03-01T03:45:20;25.63;;;15.43;;
140;SDS011;65;48.778;9.160;2023-03-01T03:48:06;25.83;;;15.67;;
140;SDS011;65;48.778;9.160;2023-03-01T03:51:10;27.47;;;16.63;;
140;SDS011;65;48.778;9.160;2023-03-01T03:54:03;26.17;;;15.43;;
140;SDS011;65;48.778;9.160;2023-03-01T03:56:49;24.20;;;14.80;;
140;SDS011;65;48.778;9.160;2023-03-01T03:59:35;25.00;;;15.73;;
140;SDS011;65;48.778;9.160;2023-03-01T04:02:20;27.50;;;15.70;;
140;SDS011;65;48.778;9.160;2023-03-01T04:05:10;27.48;;;16.30;;
140;SDS011;65;48.778;9.160;2023-03-01T04:07:57;27.63;;;16.60;;
140;SDS011;65;48.778;9.160;2023-03-01T04:10:52;28.73;;;16.90;;
140;SDS011;65;48.778;9.160;2023-03-01T04:13:43;30.17;;;15.90;;
140;SDS011;65;48.778;9.160;2023-03-01T04:16:29;26.10;;;15.93;;
140;SDS011;65;48.778;9.160;2023-03-01T04:19:14;26.53;;;16.40;;
140;SDS011;65;48.778;9.160;2023-03-01T04:22:00;27.67;;;16.57;;
140;SDS011;65;48.778;9.160;2023-03-01T04:24:52;29.67;;;15.97;;
140;SDS011;65;48.778;9.160;2023-03-01T04:27:38;29.57;;;16.40;;
140;SDS011;65;48.778;9.160;2023-03-01T04:30:23;29.67;;;16.13;;
140;SDS011;65;48.778;9.160;2023-03-01T04:33:10;28.40;;;16.93;;
140;SDS011;65;48.778;9.160;2023-03-01T04:35:56;25.67;;;15.83;;
140;SDS011;65;48.778;9.160;2023-03-01T04:38:43;29.92;;;17.13;;
140;SDS011;65;48.778;9.160;2023-03-01T04:41:32;30.50;;;15.93;;
140;SDS011;65;48.778;9.160;2023-03-01T04:44:18;26.27;;;16.17;;
140;SDS011;65;48.778;9.160;2023-03-01T04:47:04;27.27;;;16.50;;
140;SDS011;65;48.778;9.160;2023-03-01T04:49:50;31.63;;;18.03;;
140;SDS011;65;48.778;9.160;2023-03-01T04:52:36;28.30;;;16.40;;
140;SDS011;65;48.778;9.160;2023-03-01T04:55:21;29.47;;;16.33;;
140;SDS011;65;48.778;9.160;2023-03-01T04:58:07;30.17;;;18.07;;
140;SDS011;65;48.778;9.160;2023-03-01T05:00:53;27.63;;;16.10;;
140;SDS011;65;48.778;9.160;2023-03-01T05:03:39;26.57;;;16.00;;
140;SDS011;65;48.778;9.160;2023-03-01T05:06:25;31.80;;;17.40;;
140;SDS011;65;48.778;9.160;2023-03-01T05:09:11;30.27;;;16.30;;
140;SDS011;65;48.778;9.160;2023-03-01T05:11:56;27.63;;;16.63;;
140;SDS011;65;48.778;9.160;2023-03-01T05:14:42;27.42;;;16.13;;
140;SDS011;65;48.778;9.160;2023-03-01T05:17:28;28.15;;;17.23;;
140;SDS011;65;48.778;9.160;2023-03-01T05:20:13;28.77;;;17.57;;
140;SDS011;65;48.778;9.160;2023-03-01T05:22:59;28.60;;;16.80;;
140;SDS011;65;48.778;9.160;2023-03-01T05:25:45;28.37;;;16.60;;
140;SDS011;65;48.778;9.160;2023-03-01T05:28:31;29.98;;;17.92;;
140;SDS011;65;48.778;9.160;2023-03-01T05:31:17;30.85;;;16.98;;
140;SDS011;65;48.778;9.160;2023-03-01T05:34:02;29.38;;;16.45;;
140;SDS011;65;48.778;9.160;2023-03-01T05:36:48;27.50;;;16.50;;
140;SDS011;65;48.778;9.160;2023-03-01T05:39:38;30.33;;;16.97;;
140;SDS011;65;48.778;9.160;2023-03-01T05:42:24;29.90;;;16.87;;
140;SDS011;65;48.778;9.160;2023-03-01T05:45:10;26.13;;;16.90;;
140;SDS011;65;48.778;9.160;2023-03-01T05:47:57;29.88;;;17.52;;
140;SDS011;65;48.778;9.160;2023-03-01T05:50:44;31.37;;;16.77;;
140;SDS011;65;48.778;9.160;2023-03-01T05:53:31;29.90;;;17.48;;
140;SDS011;65;48.778;9.160;2023-03-01T05:56:16;28.20;;;16.97;;
140;SDS011;65;48.778;9.160;2023-03-01T05:59:03;28.97;;;17.53;;
140;SDS011;65;48.778;9.160;2023-03-01T06:01:50;27.93;;;16.57;;
140;SDS011;65;48.778;9.160;2023-03-01T06:04:35;31.23;;;17.23;;
140;SDS011;65;48.778;9.160;2023-03-01T06:07:21;27.20;;;17.38;;
140;SDS011;65;48.778;9.160;2023-03-01T06:10:07;27.80;;;16.83;;
140;SDS011;65;48.778;9.160;2023-03-01T06:12:54;25.13;;;16.23;;
140;SDS011;65;48.778;9.160;2023-03-01T06:15:40;29.70;;;17.60;;
140;SDS011;65;48.778;9.160;2023-03-01T06:18:28;27.37;;;16.80;;
140;SDS011;65;48.778;9.160;2023-03-01T06:21:14;29.95;;;17.45;;
140;SDS011;65;48.778;9.160;2023-03-01T06:24:00;26.83;;;16.20;;
140;SDS011;65;48.778;9.160;2023-03-01T06:26:46;29.87;;;16.83;;
140;SDS011;65;48.778;9.160;2023-03-01T06:29:31;30.97;;;17.77;;
140;SDS011;65;48.778;9.160;2023-03-01T06:32:17;28.87;;;17.07;;
140;SDS011;65;48.778;9.160;2023-03-01T06:35:03;33.90;;;17.10;;
140;SDS011;65;48.778;9.160;2023-03-01T06:37:50;30.70;;;17.03;;
140;SDS011;65;48.778;9.160;2023-03-01T06:40:35;27.40;;;16.42;;
140;SDS011;65;48.778;9.160;2023-03-01T06:43:22;28.08;;;16.98;;
140;SDS011;65;48.778;9.160;2023-03-01T06:46:08;28.57;;;16.63;;
140;SDS011;65;48.778;9.160;2023-03-01T06:48:54;31.03;;;18.10;;
140;SDS011;65;48.778;9.160;2023-03-01T06:51:40;28.80;;;16.40;;
140;SDS011;65;48.778;9.160;2023-03-01T06:54:25;29.37;;;17.30;;
140;SDS011;65;48.778;9.160;2023-03-01T06:57:11;33.67;;;17.67;;
140;SDS011;65;48.778;9.160;2023-03-01T06:59:57;26.90;;;17.23;;
140;SDS011;65;48.778;9.160;2023-03-01T07:02:42;29.13;;;17.17;;
140;SDS011;65;48.778;9.160;2023-03-01T07:05:28;28.37;;;17.37;;
140;SDS011;65;48.778;9.160;2023-03-01T07:08:15;31.43;;;18.33;;
140;SDS011;65;48.778;9.160;2023-03-01T07:11:00;28.70;;;17.73;;
140;SDS011;65;48.778;9.160;2023-03-01T07:13:47;28.73;;;16.92;;
140;SDS011;65;48.778;9.160;2023-03-01T07:16:33;27.43;;;17.17;;
140;SDS011;65;48.778;9.160;2023-03-01T07:19:19;30.67;;;18.13;;
140;SDS011;65;48.778;9.160;2023-03-01T07:25:24;31.60;;;18.08;;
140;SDS011;65;48.778;9.160;2023-03-01T07:28:10;29.42;;;18.42;;
140;SDS011;65;48.778;9.160;2023-03-01T07:31:00;30.15;;;17.80;;
140;SDS011;65;48.778;9.160;2023-03-01T07:33:49;29.93;;;18.10;;
140;SDS011;65;48.778;9.160;2023-03-01T07:36:34;28.93;;;17.67;;
140;SDS011;65;48.778;9.160;2023-03-01T07:39:20;29.93;;;18.03;;
140;SDS011;65;48.778;9.160;2023-03-01T07:42:08;28.97;;;17.57;;
140;SDS011;65;48.778;9.160;2023-03-01T07:44:54;30.00;;;18.07;;
140;SDS011;65;48.778;9.160;2023-03-01T07:47:49;33.63;;;18.83;;
140;SDS011;65;48.778;9.160;2023-03-01T07:50:35;30.48;;;17.60;;
140;SDS011;65;48.778;9.160;2023-03-01T07:53:21;29.67;;;17.93;;
140;SDS011;65;48.778;9.160;2023-03-01T07:56:08;27.38;;;17.35;;
140;SDS011;65;48.778;9.160;2023-03-01T07:58:56;31.45;;;19.00;;
140;SDS011;65;48.778;9.160;2023-03-01T08:01:42;33.33;;;18.87;;
140;SDS011;65;48.778;9.160;2023-03-01T08:04:30;32.93;;;18.00;;
140;SDS011;65;48.778;9.160;2023-03-01T08:07:18;28.70;;;18.00;;
140;SDS011;65;48.778;9.160;2023-03-01T08:10:04;32.03;;;17.97;;
140;SDS011;65;48.778;9.160;2023-03-01T08:12:53;29.73;;;18.55;;
140;SDS011;65;48.778;9.160;2023-03-01T08:15:38;32.90;;;17.87;;
140;SDS011;65;48.778;9.160;2023-03-01T08:18:24;29.03;;;17.53;;
140;SDS011;65;48.778;9.160;2023-03-01T08:21:11;31.70;;;17.85;;
140;SDS011;65;48.778;9.160;2023-03-01T08:23:58;29.42;;;18.20;;
140;SDS011;65;48.778;9.160;2023-03-01T08:26:44;31.08;;;19.45;;
140;SDS011;65;48.778;9.160;2023-03-01T08:29:30;30.85;;;17.15;;
140;SDS011;65;48.778;9.160;2023-03-01T08:32:17;29.17;;;15.95;;
140;SDS011;65;48.778;9.160;2023-03-01T08:35:03;28.77;;;17.30;;
140;SDS011;65;48.778;9.160;2023-03-01T08:37:49;29.23;;;18.60;;
140;SDS011;65;48.778;9.160;2023-03-01T08:40:34;31.10;;;18.52;;
140;SDS011;65;48.778;9.160;2023-03-01T08:43:20;28.75;;;17.55;;
140;SDS011;65;48.778;9.160;2023-03-01T08:46:06;31.83;;;18.37;;
140;SDS011;65;48.778;9.160;2023-03-01T08:48:52;31.50;;;18.42;;
140;SDS011;65;48.778;9.160;2023-03-01T08:51:37;30.48;;;18.00;;
140;SDS011;65;48.778;9.160;2023-03-01T08:54:23;30.88;;;18.00;;
140;SDS011;65;48.778;9.160;2023-03-01T08:57:09;28.88;;;17.75;;
140;SDS011;65;48.778;9.160;2023-03-01T08:59:55;28.97;;;18.07;;
140;SDS011;65;48.778;9.160;2023-03-01T09:02:41;30.63;;;18.43;;
140;SDS011;65;48.778;9.160;2023-03-01T09:05:27;36.28;;;19.27;;
140;SDS011;65;48.778;9.160;2023-03-01T09:08:13;31.43;;;17.63;;
140;SDS011;65;48.778;9.160;2023-03-01T09:10:58;31.67;;;19.23;;
140;SDS011;65;48.778;9.160;2023-03-01T09:13:49;29.67;;;17.60;;
140;SDS011;65;48.778;9.160;2023-03-01T09:16:35;33.87;;;19.30;;
140;SDS011;65;48.778;9.160;2023-03-01T09:19:21;32.83;;;18.92;;
140;SDS011;65;48.778;9.160;2023-03-01T09:22:07;32.65;;;18.33;;
140;SDS011;65;48.778;9.160;2023-03-01T09:24:53;30.33;;;18.70;;
140;SDS011;65;48.778;9.160;2023-03-01T09:27:51;28.38;;;17.20;;
140;SDS011;65;48.778;9.160;2023-03-01T09:30:49;29.17;;;18.23;;
140;SDS011;65;48.778;9.160;2023-03-01T09:33:35;30.42;;;18.45;;
140;SDS011;65;48.778;9.160;2023-03-01T09:36:22;31.08;;;18.80;;
140;SDS011;65;48.778;9.160;2023-03-01T09:39:10;31.37;;;17.73;;
140;SDS011;65;48.778;9.160;2023-03-01T09:41:58;30.60;;;17.77;;
140;SDS011;65;48.778;9.160;2023-03-01T09:47:36;30.30;;;18.42;;
140;SDS011;65;48.778;9.160;2023-03-01T09:52:41;28.83;;;18.48;;
140;SDS011;65;48.778;9.160;2023-03-01T09:55:08;31.92;;;18.55;;
140;SDS011;65;48.778;9.160;2023-03-01T09:57:46;28.65;;;17.73;;
140;SDS011;65;48.778;9.160;2023-03-01T10:03:08;28.92;;;17.88;;
140;SDS011;65;48.778;9.160;2023-03-01T10:05:39;29.20;;;17.80;;
140;SDS011;65;48.778;9.160;2023-03-01T10:16:51;30.08;;;18.00;;
140;SDS011;65;48.778;9.160;2023-03-01T10:19:24;27.10;;;16.95;;
140;SDS011;65;48.778;9.160;2023-03-01T10:21:57;24.88;;;16.27;;
140;SDS011;65;48.778;9.160;2023-03-01T10:24:29;26.27;;;17.00;;
140;SDS011;65;48.778;9.160;2023-03-01T10:32:53;28.23;;;17.25;;
140;SDS011;65;48.778;9.160;2023-03-01T10:35:20;27.02;;;16.95;;
140;SDS011;65;48.778;9.160;2023-03-01T10:38:05;26.98;;;17.15;;
140;SDS011;65;48.778;9.160;2023-03-01T10:40:34;27.13;;;16.27;;
140;SDS011;65;48.778;9.160;2023-03-01T10:43:02;28.13;;;16.88;;
140;SDS011;65;48.778;9.160;2023-03-01T10:48:11;24.90;;;15.65;;
140;SDS011;65;48.778;9.160;2023-03-01T10:51:14;26.38;;;15.88;;
140;SDS011;65;48.778;9.160;2023-03-01T10:53:43;26.20;;;16.90;;
140;SDS011;65;48.778;9.160;2023-03-01T10:56:15;29.08;;;16.85;;
140;SDS011;65;48.778;9.160;2023-03-01T10:59:03;25.67;;;16.75;;
140;SDS011;65;48.778;9.160;2023-03-01T11:01:29;26.60;;;16.38;;
140;SDS011;65;48.778;9.160;2023-03-01T11:04:09;24.30;;;15.50;;
140;SDS011;65;48.778;9.160;2023-03-01T11:06:59;23.42;;;15.13;;
140;SDS011;65;48.778;9.160;2023-03-01T11:09:46;23.92;;;15.60;;
140;SDS011;65;48.778;9.160;2023-03-01T11:12:32;25.73;;;15.95;;
140;SDS011;65;48.778;9.160;2023-03-01T11:15:28;22.73;;;14.32;;
140;SDS011;65;48.778;9.160;2023-03-01T11:18:20;23.73;;;14.45;;
140;SDS011;65;48.778;9.160;2023-03-01T11:21:07;23.70;;;15.55;;
140;SDS011;65;48.778;9.160;2023-03-01T11:23:54;25.50;;;15.63;;
140;SDS011;65;48.778;9.160;2023-03-01T11:26:44;23.45;;;15.65;;
140;SDS011;65;48.778;9.160;2023-03-01T11:29:37;24.92;;;15.88;;
140;SDS011;65;48.778;9.160;2023-03-01T11:32:28;25.02;;;15.88;;
140;SDS011;65;48.778;9.160;2023-03-01T11:35:21;24.48;;;15.25;;
140;SDS011;65;48.778;9.160;2023-03-01T11:50:19;25.42;;;16.65;;
140;SDS011;65;48.778;9.160;2023-03-01T11:59:29;25.27;;;16.60;;
140;SDS011;65;48.778;9.160;2023-03-01T12:18:04;21.63;;;14.75;;
140;SDS011;65;48.778;9.160;2023-03-01T12:21:05;20.45;;;14.98;;
140;SDS011;65;48.778;9.160;2023-03-01T12:46:04;19.50;;;13.50;;
140;SDS011;65;48.778;9.160;2023-03-01T12:53:02;18.50;;;13.65;;
140;SDS011;65;48.778;9.160;2023-03-01T12:55:24;19.15;;;12.88;;
140;SDS011;65;48.778;9.160;2023-03-01T13:03:55;18.77;;;12.98;;
140;SDS011;65;48.778;9.160;2023-03-01T13:15:53;16.92;;;12.45;;
140;SDS011;65;48.778;9.160;2023-03-01T13:18:40;16.67;;;12.80;;
140;SDS011;65;48.778;9.160;2023-03-01T13:21:30;15.90;;;12.25;;
140;SDS011;65;48.778;9.160;2023-03-01T13:24:49;15.73;;;11.93;;
140;SDS011;65;48.778;9.160;2023-03-01T13:27:29;18.20;;;11.88;;
140;SDS011;65;48.778;9.160;2023-03-01T13:39:28;39.67;;;13.88;;
140;SDS011;65;48.778;9.160;2023-03-01T13:42:36;19.65;;;13.95;;
140;SDS011;65;48.778;9.160;2023-03-01T13:48:11;19.13;;;13.98;;
140;SDS011;65;48.778;9.160;2023-03-01T13:51:07;18.23;;;14.00;;
140;SDS011;65;48.778;9.160;2023-03-01T13:53:55;17.30;;;13.65;;
140;SDS011;65;48.778;9.160;2023-03-01T13:56:43;19.65;;;13.70;;
140;SDS011;65;48.778;9.160;2023-03-01T13:59:29;20.92;;;14.38;;
140;SDS011;65;48.778;9.160;2023-03-01T14:02:15;22.65;;;15.02;;
140;SDS011;65;48.778;9.160;2023-03-01T14:05:02;20.63;;;14.80;;
140;SDS011;65;48.778;9.160;2023-03-01T14:07:50;20.23;;;15.30;;
140;SDS011;65;48.778;9.160;2023-03-01T14:10:43;23.48;;;15.80;;
140;SDS011;65;48.778;9.160;2023-03-01T14:19:40;19.10;;;15.20;;
140;SDS011;65;48.778;9.160;2023-03-01T14:22:32;22.38;;;16.45;;
140;SDS011;65;48.778;9.160;2023-03-01T14:25:27;26.23;;;16.48;;
140;SDS011;65;48.778;9.160;2023-03-01T14:31:02;23.33;;;16.40;;
140;SDS011;65;48.778;9.160;2023-03-01T14:33:29;27.58;;;17.75;;
140;SDS011;65;48.778;9.160;2023-03-01T14:38:31;21.98;;;15.90;;
140;SDS011;65;48.778;9.160;2023-03-01T14:41:02;22.08;;;16.25;;
140;SDS011;65;48.778;9.160;2023-03-01T14:43:33;23.40;;;16.17;;
140;SDS011;65;48.778;9.160;2023-03-01T14:45:59;22.30;;;16.08;;
140;SDS011;65;48.778;9.160;2023-03-01T14:48:24;22.95;;;16.90;;
140;SDS011;65;48.778;9.160;2023-03-01T14:50:53;21.52;;;16.23;;
140;SDS011;65;48.778;9.160;2023-03-01T14:53:27;23.95;;;16.60;;
140;SDS011;65;48.778;9.160;2023-03-01T14:55:55;21.92;;;16.13;;
140;SDS011;65;48.778;9.160;2023-03-01T14:58:27;22.85;;;17.17;;
140;SDS011;65;48.778;9.160;2023-03-01T15:00:59;23.20;;;15.98;;
140;SDS011;65;48.778;9.160;2023-03-01T15:03:46;23.25;;;15.63;;
140;SDS011;65;48.778;9.160;2023-03-01T15:06:17;22.73;;;16.25;;
140;SDS011;65;48.778;9.160;2023-03-01T15:08:56;26.55;;;16.17;;
140;SDS011;65;48.778;9.160;2023-03-01T15:11:24;24.33;;;16.35;;
140;SDS011;65;48.778;9.160;2023-03-01T15:13:53;24.00;;;16.63;;
140;SDS011;65;48.778;9.160;2023-03-01T15:18:59;24.35;;;16.27;;
140;SDS011;65;48.778;9.160;2023-03-01T15:21:33;25.30;;;17.05;;
140;SDS011;65;48.778;9.160;2023-03-01T15:26:43;23.75;;;15.88;;
140;SDS011;65;48.778;9.160;2023-03-01T15:29:18;25.65;;;17.10;;
140;SDS011;65;48.778;9.160;2023-03-01T15:32:05;28.13;;;17.65;;
140;SDS011;65;48.778;9.160;2023-03-01T15:34:49;22.15;;;15.48;;
140;SDS011;65;48.778;9.160;2023-03-01T15:42:49;25.92;;;16.48;;
140;SDS011;65;48.778;9.160;2023-03-01T15:48:04;27.50;;;17.08;;
140;SDS011;65;48.778;9.160;2023-03-01T15:50:40;24.33;;;16.45;;
140;SDS011;65;48.778;9.160;2023-03-01T15:53:07;25.95;;;16.13;;
140;SDS011;65;48.778;9.160;2023-03-01T15:55:36;24.50;;;16.08;;
140;SDS011;65;48.778;9.160;2023-03-01T15:58:18;29.08;;;16.58;;
140;SDS011;65;48.778;9.160;2023-03-01T16:00:46;25.42;;;16.85;;
140;SDS011;65;48.778;9.160;2023-03-01T16:03:13;23.65;;;16.02;;
140;SDS011;65;48.778;9.160;2023-03-01T16:05:46;29.00;;;17.23;;
140;SDS011;65;48.778;9.160;2023-03-01T16:08:13;27.65;;;15.48;;
140;SDS011;65;48.778;9.160;2023-03-01T16:10:39;24.80;;;15.80;;
140;SDS011;65;48.778;9.160;2023-03-01T16:13:06;24.83;;;15.60;;
140;SDS011;65;48.778;9.160;2023-03-01T16:15:32;27.35;;;15.70;;
140;SDS011;65;48.778;9.160;2023-03-01T16:18:01;28.52;;;16.52;;
140;SDS011;65;48.778;9.160;2023-03-01T16:20:28;27.00;;;16.38;;
140;SDS011;65;48.778;9.160;2023-03-01T16:25:41;25.25;;;16.17;;
140;SDS011;65;48.778;9.160;2023-03-01T16:28:07;23.50;;;15.27;;
140;SDS011;65;48.778;9.160;2023-03-01T16:30:35;28.63;;;17.42;;
140;SDS011;65;48.778;9.160;2023-03-01T16:33:01;26.98;;;16.33;;
140;SDS011;65;48.778;9.160;2023-03-01T16:35:26;25.02;;;15.52;;
140;SDS011;65;48.778;9.160;2023-03-01T16:37:52;25.85;;;16.10;;
140;SDS011;65;48.778;9.160;2023-03-01T16:40:22;26.13;;;15.52;;
140;SDS011;65;48.778;9.160;2023-03-01T16:42:51;25.27;;;14.68;;
140;SDS011;65;48.778;9.160;2023-03-01T16:45:18;25.58;;;15.32;;
140;SDS011;65;48.778;9.160;2023-03-01T16:47:44;25.90;;;15.85;;
140;SDS011;65;48.778;9.160;2023-03-01T16:50:10;26.05;;;15.15;;
140;SDS011;65;48.778;9.160;2023-03-01T16:52:36;23.42;;;15.48;;
140;SDS011;65;48.778;9.160;2023-03-01T16:55:02;24.45;;;15.65;;
140;SDS011;65;48.778;9.160;2023-03-01T16:57:29;27.50;;;16.33;;
140;SDS011;65;48.778;9.160;2023-03-01T16:59:55;26.38;;;15.43;;
140;SDS011;65;48.778;9.160;2023-03-01T17:02:20;26.40;;;15.30;;
140;SDS011;65;48.778;9.160;2023-03-01T17:04:52;27.98;;;15.68;;
140;SDS011;65;48.778;9.160;2023-03-01T17:10:09;26.63;;;16.52;;
140;SDS011;65;48.778;9.160;2023-03-01T17:12:35;25.38;;;16.05;;
140;SDS011;65;48.778;9.160;2023-03-01T17:15:02;29.88;;;17.08;;
140;SDS011;65;48.778;9.160;2023-03-01T17:17:28;28.20;;;15.95;;
140;SDS011;65;48.778;9.160;2023-03-01T17:19:54;26.58;;;15.55;;
140;SDS011;65;48.778;9.160;2023-03-01T17:22:25;27.35;;;16.00;;
140;SDS011;65;48.778;9.160;2023-03-01T17:24:50;25.23;;;15.63;;
140;SDS011;65;48.778;9.160;2023-03-01T17:27:15;26.15;;;15.82;;
140;SDS011;65;48.778;9.160;2023-03-01T17:29:42;28.80;;;16.05;;
140;SDS011;65;48.778;9.160;2023-03-01T17:32:08;23.63;;;15.75;;
140;SDS011;65;48.778;9.160;2023-03-01T17:34:34;29.38;;;16.05;;
140;SDS011;65;48.778;9.160;2023-03-01T17:37:05;26.88;;;14.75;;
140;SDS011;65;48.778;9.160;2023-03-01T17:42:16;23.95;;;14.68;;
140;SDS011;65;48.778;9.160;2023-03-01T17:44:42;26.58;;;15.23;;
140;SDS011;65;48.778;9.160;2023-03-01T17:47:08;26.67;;;15.88;;
140;SDS011;65;48.778;9.160;2023-03-01T17:49:34;25.60;;;15.13;;
140;SDS011;65;48.778;9.160;2023-03-01T17:52:00;24.63;;;15.13;;
140;SDS011;65;48.778;9.160;2023-03-01T17:54:25;27.15;;;15.65;;
140;SDS011;65;48.778;9.160;2023-03-01T17:56:51;26.08;;;15.75;;
140;SDS011;65;48.778;9.160;2023-03-01T17:59:16;24.05;;;14.98;;
140;SDS011;65;48.778;9.160;2023-03-01T18:01:42;26.90;;;16.33;;
140;SDS011;65;48.778;9.160;2023-03-01T18:04:07;28.75;;;16.45;;
140;SDS011;65;48.778;9.160;2023-03-01T18:06:34;26.13;;;16.27;;
140;SDS011;65;48.778;9.160;2023-03-01T18:09:00;27.02;;;16.25;;
140;SDS011;65;48.778;9.160;2023-03-01T18:11:25;27.27;;;16.40;;
140;SDS011;65;48.778;9.160;2023-03-01T18:13:52;27.73;;;16.42;;
140;SDS011;65;48.778;9.160;2023-03-01T18:16:19;25.98;;;15.63;;
140;SDS011;65;48.778;9.160;2023-03-01T18:18:46;26.90;;;15.98;;
140;SDS011;65;48.778;9.160;2023-03-01T18:21:12;27.90;;;15.75;;
140;SDS011;65;48.778;9.160;2023-03-01T18:23:38;26.05;;;16.20;;
140;SDS011;65;48.778;9.160;2023-03-01T18:26:05;28.27;;;17.48;;
140;SDS011;65;48.778;9.160;2023-03-01T18:28:33;27.20;;;16.25;;
140;SDS011;65;48.778;9.160;2023-03-01T18:31:00;30.80;;;16.60;;
140;SDS011;65;48.778;9.160;2023-03-01T18:33:29;26.10;;;16.35;;
140;SDS011;65;48.778;9.160;2023-03-01T18:35:55;28.50;;;16.20;;
140;SDS011;65;48.778;9.160;2023-03-01T18:38:21;28.92;;;17.25;;
140;SDS011;65;48.778;9.160;2023-03-01T18:40:47;28.67;;;17.48;;
140;SDS011;65;48.778;9.160;2023-03-01T18:43:12;30.55;;;18.52;;
140;SDS011;65;48.778;9.160;2023-03-01T18:45:46;28.63;;;17.00;;
140;SDS011;65;48.778;9.160;2023-03-01T18:48:12;29.00;;;16.98;;
140;SDS011;65;48.778;9.160;2023-03-01T18:50:38;27.27;;;17.20;;
140;SDS011;65;48.778;9.160;2023-03-01T18:53:05;27.77;;;17.85;;
140;SDS011;65;48.778;9.160;2023-03-01T18:55:34;29.13;;;17.27;;
140;SDS011;65;48.778;9.160;2023-03-01T18:58:01;27.88;;;16.55;;
140;SDS011;65;48.778;9.160;2023-03-01T19:00:26;30.35;;;17.63;;
140;SDS011;65;48.778;9.160;2023-03-01T19:02:52;28.50;;;18.27;;
140;SDS011;65;48.778;9.160;2023-03-01T19:05:17;26.35;;;16.95;;
140;SDS011;65;48.778;9.160;2023-03-01T19:07:43;34.70;;;16.95;;
140;SDS011;65;48.778;9.160;2023-03-01T19:10:08;32.47;;;18.33;;
140;SDS011;65;48.778;9.160;2023-03-01T19:12:34;30.75;;;16.65;;
140;SDS011;65;48.778;9.160;2023-03-01T19:15:00;28.58;;;17.30;;
140;SDS011;65;48.778;9.160;2023-03-01T19:17:25;30.60;;;18.15;;
140;SDS011;65;48.778;9.160;2023-03-01T19:19:55;30.45;;;17.08;;
140;SDS011;65;48.778;9.160;2023-03-01T19:22:21;27.20;;;17.38;;
140;SDS011;65;48.778;9.160;2023-03-01T19:24:46;30.73;;;17.48;;
140;SDS011;65;48.778;9.160;2023-03-01T19:27:12;28.02;;;17.63;;
140;SDS011;65;48.778;9.160;2023-03-01T19:29:38;29.67;;;18.23;;
140;SDS011;65;48.778;9.160;2023-03-01T19:32:05;33.72;;;17.60;;
140;SDS011;65;48.778;9.160;2023-03-01T19:34:31;33.50;;;18.33;;
140;SDS011;65;48.778;9.160;2023-03-01T19:36:57;30.65;;;18.13;;